Time;durP1;ratioP1;P1;durP2;ratioP2;P2;SDS_P1;SDS_P2;PMS_P1;PMS_P2;Temp;Humidity;BMP_temperature;BMP_pressure;BME280_temperature;BME280_humidity;BME280_pressure;Samples;Min_cycle;Max_cycle;Signal;HPM_P1;HPM_P2
2022/10/13 00:01:50;;;;;;;33.07;20.47;;;;;;;9.31;100.00;95413.78;5109499;28;20208;-76
2022/10/13 00:04:17;;;;;;;33.70;18.53;;;;;;;9.04;100.00;95418.00;5109121;28;20280;-76
2022/10/13 00:06:43;;;;;;;28.53;18.97;;;;;;;9.06;100.00;95412.63;5109477;28;20269;-76
2022/10/13 00:09:12;;;;;;;26.83;17.10;;;;;;;9.24;100.00;95417.31;5109347;28;20230;-78
2022/10/13 00:11:41;;;;;;;30.60;18.37;;;;;;;9.38;100.00;95408.63;5109649;28;20207;-77
2022/10/13 00:14:08;;;;;;;33.13;20.63;;;;;;;9.44;100.00;95413.84;5107719;28;20508;-83
2022/10/13 00:16:35;;;;;;;33.07;22.50;;;;;;;9.56;100.00;95419.28;5110946;28;20631;-83
2022/10/13 00:19:02;;;;;;;40.53;24.27;;;;;;;9.66;100.00;95407.59;5109401;28;20214;-83
2022/10/13 00:21:30;;;;;;;40.13;24.03;;;;;;;9.75;100.00;95410.00;5110710;28;20204;-83
2022/10/13 00:23:57;;;;;;;37.53;23.40;;;;;;;9.80;100.00;95413.63;5108388;28;20722;-83
2022/10/13 00:26:26;;;;;;;40.17;25.13;;;;;;;9.81;100.00;95391.88;5111827;28;20226;-82
2022/10/13 00:28:54;;;;;;;42.20;26.77;;;;;;;9.83;100.00;95405.44;5112007;28;20289;-82
2022/10/13 00:31:23;;;;;;;42.37;27.23;;;;;;;9.86;100.00;95396.47;5110401;28;20211;-82
2022/10/13 00:33:51;;;;;;;49.83;30.33;;;;;;;9.84;100.00;95386.25;5111551;28;20907;-82
2022/10/13 00:36:19;;;;;;;46.53;30.63;;;;;;;9.95;100.00;95390.91;5111047;28;20204;-83
2022/10/13 00:38:46;;;;;;;47.50;29.23;;;;;;;9.92;100.00;95393.91;5111865;28;20662;-84
2022/10/13 00:41:13;;;;;;;46.50;28.17;;;;;;;9.88;100.00;95389.28;5111606;28;20236;-84
2022/10/13 00:43:57;;;;;;;43.13;26.13;;;;;;;9.90;100.00;95389.91;5111676;28;20200;-82
2022/10/13 00:46:26;;;;;;;45.40;28.00;;;;;;;9.86;100.00;95386.88;5111575;28;20289;-85
2022/10/13 00:48:53;;;;;;;44.00;26.00;;;;;;;9.90;100.00;95387.31;5111481;28;20230;-86
2022/10/13 00:51:26;;;;;;;39.60;25.43;;;;;;;9.89;100.00;95381.31;5111647;28;20215;-87
2022/10/13 00:53:55;;;;;;;43.27;26.60;;;;;;;9.92;100.00;95380.91;5113355;28;20200;-85
2022/10/13 00:56:24;;;;;;;44.37;27.20;;;;;;;9.97;100.00;95388.09;5112680;28;20212;-85
2022/10/13 00:58:53;;;;;;;39.63;25.33;;;;;;;9.95;100.00;95383.13;5111601;28;20299;-85
2022/10/13 01:01:21;;;;;;;45.07;26.67;;;;;;;9.91;100.00;95384.50;5111652;28;20226;-85
2022/10/13 01:03:49;;;;;;;46.20;26.50;;;;;;;9.89;100.00;95381.31;5112560;28;20250;-85
2022/10/13 01:06:18;;;;;;;46.57;26.00;;;;;;;9.93;100.00;95387.69;5111269;28;20203;-85
2022/10/13 01:08:45;;;;;;;45.33;26.67;;;;;;;9.90;100.00;95379.50;5111012;28;20261;-85
2022/10/13 01:11:26;;;;;;;45.47;26.63;;;;;;;9.73;100.00;95381.63;5111151;28;20222;-86
2022/10/13 01:14:02;;;;;;;43.60;25.33;;;;;;;9.29;100.00;95382.06;5111012;28;20253;-84
2022/10/13 01:16:39;;;;;;;38.23;23.60;;;;;;;9.00;100.00;95372.69;5105765;28;20203;-84
2022/10/13 01:19:20;;;;;;;34.10;20.23;;;;;;;8.83;100.00;95380.97;5108090;28;20192;-84
2022/10/13 01:22:01;;;;;;;31.47;17.03;;;;;;;8.87;100.00;95382.97;5110186;28;20702;-85
2022/10/13 01:24:56;;;;;;;29.10;17.27;;;;;;;8.99;100.00;95388.44;5107402;28;20208;-86
2022/10/13 01:27:44;;;;;;;31.90;19.87;;;;;;;9.03;100.00;95380.09;5110752;28;20215;-84
2022/10/13 01:30:15;;;;;;;37.53;20.77;;;;;;;9.08;100.00;95388.13;5108743;28;20212;-84
2022/10/13 01:33:13;;;;;;;36.07;20.87;;;;;;;9.23;100.00;95385.41;5111254;28;20192;-84
2022/10/13 01:35:49;;;;;;;43.73;26.40;;;;;;;9.29;100.00;95383.84;5109843;28;20210;-83
2022/10/13 01:38:26;;;;;;;38.27;21.00;;;;;;;9.35;100.00;95383.09;5107435;28;20196;-77
2022/10/13 01:44:25;;;;;;;21.63;13.53;;;;;;;9.25;100.00;95380.81;5091163;28;20212;-83
2022/10/13 01:46:55;;;;;;;24.27;14.63;;;;;;;9.33;100.00;95390.22;5110390;28;20607;-84
2022/10/13 01:49:26;;;;;;;28.50;16.97;;;;;;;9.34;100.00;95382.28;5109997;28;20269;-84
2022/10/13 01:51:55;;;;;;;28.60;17.57;;;;;;;9.32;100.00;95384.25;5109009;28;20214;-85
2022/10/13 01:54:22;;;;;;;33.83;18.43;;;;;;;9.31;100.00;95380.06;5108966;28;20231;-85
2022/10/13 01:56:52;;;;;;;29.80;16.40;;;;;;;9.38;100.00;95380.09;5110478;28;20196;-84
2022/10/13 01:59:20;;;;;;;29.70;16.70;;;;;;;9.38;100.00;95373.09;5110590;28;20211;-84
2022/10/13 02:02:03;;;;;;;30.80;17.83;;;;;;;9.39;100.00;95373.91;5107739;28;20224;-77
2022/10/13 02:04:44;;;;;;;31.03;18.63;;;;;;;9.44;100.00;95372.34;5104403;28;20204;-76
2022/10/13 02:07:19;;;;;;;29.70;18.40;;;;;;;9.55;100.00;95369.19;5105345;28;20208;-76
2022/10/13 02:09:56;;;;;;;29.03;18.80;;;;;;;9.54;100.00;95377.19;5107719;28;20215;-76
2022/10/13 02:12:28;;;;;;;36.43;24.07;;;;;;;9.54;100.00;95372.78;5109205;28;20208;-85
2022/10/13 02:14:59;;;;;;;42.87;25.80;;;;;;;9.46;100.00;95372.16;5110413;28;20283;-83
2022/10/13 02:17:28;;;;;;;42.83;25.13;;;;;;;9.49;100.00;95371.78;5109910;28;20200;-83
2022/10/13 02:19:55;;;;;;;39.53;26.17;;;;;;;9.47;100.00;95365.94;5110464;28;20219;-85
2022/10/13 02:22:27;;;;;;;40.97;24.27;;;;;;;9.07;100.00;95362.38;5110331;28;20200;-85
2022/10/13 02:24:54;;;;;;;47.23;27.03;;;;;;;8.81;100.00;95360.41;5110554;28;20196;-85
2022/10/13 02:27:22;;;;;;;43.40;25.33;;;;;;;8.53;100.00;95362.19;5109848;28;20214;-84
2022/10/13 02:29:50;;;;;;;46.80;26.50;;;;;;;8.68;100.00;95362.94;5109766;28;20219;-85
2022/10/13 02:32:17;;;;;;;50.50;28.83;;;;;;;8.83;100.00;95348.06;5110338;28;20200;-86
2022/10/13 02:34:45;;;;;;;46.23;29.00;;;;;;;8.98;100.00;95358.31;5109993;28;20204;-82
2022/10/13 02:37:20;;;;;;;50.80;31.50;;;;;;;9.06;100.00;95350.41;5110327;28;20688;-83
2022/10/13 02:39:47;;;;;;;56.23;31.87;;;;;;;9.15;100.00;95349.25;5109971;28;20258;-85
2022/10/13 02:42:14;;;;;;;52.17;31.20;;;;;;;9.23;100.00;95345.72;5109675;28;20204;-85
2022/10/13 02:44:41;;;;;;;52.80;32.03;;;;;;;9.30;100.00;95341.34;5110053;28;20739;-86
2022/10/13 02:47:07;;;;;;;58.73;32.00;;;;;;;9.39;100.00;95340.97;5110182;28;20192;-85
2022/10/13 02:49:34;;;;;;;52.27;31.73;;;;;;;9.42;100.00;95332.81;5110102;28;20228;-86
2022/10/13 02:52:02;;;;;;;48.67;31.27;;;;;;;9.44;100.00;95346.38;5110385;28;20203;-86
2022/10/13 02:54:29;;;;;;;52.27;30.20;;;;;;;9.39;100.00;95346.19;5110678;28;20237;-85
2022/10/13 02:56:56;;;;;;;51.63;31.10;;;;;;;9.38;100.00;95338.59;5109932;28;20750;-86
2022/10/13 02:59:23;;;;;;;46.43;27.87;;;;;;;9.47;100.00;95340.00;5111489;28;20247;-85
2022/10/13 03:01:50;;;;;;;47.83;26.17;;;;;;;9.46;100.00;95335.84;5111999;28;21715;-86
2022/10/13 03:04:31;;;;;;;37.60;22.17;;;;;;;9.42;100.00;95339.78;5113668;28;20200;-86
2022/10/13 03:06:58;;;;;;;38.77;24.63;;;;;;;9.41;100.00;95336.41;5113861;28;20207;-83
2022/10/13 03:09:26;;;;;;;37.80;22.47;;;;;;;9.35;100.00;95337.16;5113628;28;20228;-85
2022/10/13 03:11:53;;;;;;;36.40;21.27;;;;;;;9.32;100.00;95340.16;5113636;28;20218;-84
2022/10/13 03:14:20;;;;;;;40.67;20.67;;;;;;;9.36;100.00;95341.38;5112767;28;20583;-85
2022/10/13 03:16:47;;;;;;;38.57;21.53;;;;;;;9.35;100.00;95349.34;5113040;28;20597;-86
2022/10/13 03:19:14;;;;;;;40.00;23.13;;;;;;;9.29;100.00;95344.94;5113057;28;20192;-86
2022/10/13 03:21:40;;;;;;;38.53;24.80;;;;;;;9.23;100.00;95348.31;5113883;28;20196;-88
2022/10/13 03:24:07;;;;;;;43.80;25.23;;;;;;;9.33;100.00;95357.31;5110903;28;20286;-75
2022/10/13 03:26:36;;;;;;;40.53;24.77;;;;;;;9.32;100.00;95347.94;5110139;28;20332;-74
2022/10/13 03:29:03;;;;;;;39.67;25.73;;;;;;;9.35;100.00;95350.13;5110303;28;20691;-75
2022/10/13 03:31:30;;;;;;;43.30;25.50;;;;;;;9.40;100.00;95349.56;5110273;28;20942;-74
2022/10/13 03:33:57;;;;;;;40.47;25.57;;;;;;;9.42;100.00;95360.56;5110613;28;20213;-74
2022/10/13 03:36:23;;;;;;;44.73;25.97;;;;;;;9.08;100.00;95358.78;5109886;28;20204;-74
2022/10/13 03:38:50;;;;;;;40.60;25.07;;;;;;;8.65;100.00;95355.53;5110233;28;20305;-74
2022/10/13 03:41:18;;;;;;;55.10;30.60;;;;;;;8.53;100.00;95354.44;5109097;28;20315;-74
2022/10/13 03:43:46;;;;;;;52.03;29.07;;;;;;;8.68;100.00;95351.75;5109997;28;20203;-75
2022/10/13 03:46:16;;;;;;;48.80;27.97;;;;;;;8.76;100.00;95344.63;5108789;28;20208;-71
2022/10/13 03:48:43;;;;;;;47.43;26.63;;;;;;;8.88;100.00;95342.31;5110104;28;20200;-73
2022/10/13 03:51:12;;;;;;;48.87;26.77;;;;;;;8.97;100.00;95348.97;5109491;28;20974;-73
2022/10/13 03:53:38;;;;;;;53.27;27.57;;;;;;;9.08;100.00;95349.22;5109372;28;20216;-73
2022/10/13 03:56:06;;;;;;;49.50;28.30;;;;;;;9.06;100.00;95346.00;5109186;28;20671;-74
2022/10/13 03:58:34;;;;;;;51.13;29.27;;;;;;;9.07;100.00;95342.44;5108947;28;20249;-74
2022/10/13 04:01:05;;;;;;;52.13;29.60;;;;;;;9.08;100.00;95340.66;5109585;28;20204;-73
2022/10/13 04:03:33;;;;;;;50.03;28.90;;;;;;;9.11;100.00;95346.25;5106888;28;20195;-74
2022/10/13 04:06:00;;;;;;;56.13;29.27;;;;;;;9.08;100.00;95338.84;5109339;28;20294;-73
2022/10/13 04:08:28;;;;;;;52.30;28.40;;;;;;;9.08;100.00;95338.84;5108942;28;20284;-71
2022/10/13 04:10:59;;;;;;;51.00;27.03;;;;;;;9.09;100.00;95334.47;5108773;28;20235;-72
2022/10/13 04:13:26;;;;;;;57.23;30.43;;;;;;;9.15;100.00;95340.69;5090735;28;20203;-71
2022/10/13 04:15:53;;;;;;;65.70;32.70;;;;;;;9.17;100.00;95341.28;5109669;28;20199;-72
2022/10/13 04:18:21;;;;;;;66.13;34.00;;;;;;;9.13;100.00;95326.09;5107957;28;20208;-74
2022/10/13 04:20:48;;;;;;;55.63;29.97;;;;;;;9.18;100.00;95324.75;5108245;28;20674;-72
2022/10/13 04:23:15;;;;;;;50.60;27.73;;;;;;;9.21;100.00;95335.50;5108634;28;20227;-72
2022/10/13 04:25:42;;;;;;;52.17;28.80;;;;;;;9.16;100.00;95327.50;5109282;28;20251;-71
2022/10/13 04:28:08;;;;;;;60.40;30.40;;;;;;;9.16;100.00;95337.06;5109054;28;20199;-71
2022/10/13 04:30:36;;;;;;;56.53;30.97;;;;;;;9.11;100.00;95337.66;5088124;28;20211;-71
2022/10/13 04:33:03;;;;;;;61.63;31.17;;;;;;;9.10;100.00;95334.28;5099084;28;20199;-71
2022/10/13 04:35:31;;;;;;;51.70;30.43;;;;;;;9.12;100.00;95341.84;5108472;28;20203;-71
2022/10/13 04:37:58;;;;;;;58.17;29.13;;;;;;;9.16;100.00;95334.50;5097087;28;20211;-72
2022/10/13 04:40:26;;;;;;;50.13;26.80;;;;;;;9.18;100.00;95333.28;5107398;28;20224;-73
2022/10/13 04:42:53;;;;;;;51.63;27.27;;;;;;;9.21;100.00;95332.91;5108684;28;20210;-71
2022/10/13 04:45:20;;;;;;;50.33;26.33;;;;;;;9.26;100.00;95337.53;5108204;28;20213;-72
2022/10/13 04:47:46;;;;;;;51.37;27.60;;;;;;;9.27;100.00;95336.53;5109289;28;20223;-76
2022/10/13 04:50:13;;;;;;;50.63;25.90;;;;;;;9.24;100.00;95329.13;5108186;28;20220;-76
2022/10/13 04:52:42;;;;;;;44.63;25.17;;;;;;;9.29;100.00;95331.97;5108876;28;20207;-77
2022/10/13 04:55:09;;;;;;;44.20;24.73;;;;;;;9.33;100.00;95340.94;5108707;28;20208;-76
2022/10/13 04:57:36;;;;;;;54.73;26.50;;;;;;;9.25;100.00;95336.75;5108036;28;20229;-72
2022/10/13 05:00:06;;;;;;;45.60;25.80;;;;;;;9.30;100.00;95343.94;5108459;28;20238;-71
2022/10/13 05:02:34;;;;;;;47.20;25.40;;;;;;;9.36;100.00;95343.16;5109111;28;20576;-72
2022/10/13 05:05:01;;;;;;;50.63;26.83;;;;;;;9.38;100.00;95344.56;5109314;28;20200;-73
2022/10/13 05:07:27;;;;;;;56.87;31.63;;;;;;;9.40;100.00;95349.56;5108624;28;20215;-72
2022/10/13 05:09:56;;;;;;;75.07;45.03;;;;;;;9.36;100.00;95346.56;5108725;28;20195;-73
2022/10/13 05:12:22;;;;;;;88.20;49.17;;;;;;;9.34;100.00;95350.34;5108543;28;20243;-72
2022/10/13 05:14:49;;;;;;;81.37;49.17;;;;;;;9.27;100.00;95352.91;5108793;28;20889;-75
2022/10/13 05:17:16;;;;;;;53.40;32.23;;;;;;;9.32;100.00;95352.34;5108315;28;20599;-74
2022/10/13 05:19:43;;;;;;;64.53;33.80;;;;;;;9.35;100.00;95357.16;5109248;28;20208;-75
2022/10/13 05:22:10;;;;;;;48.67;29.73;;;;;;;9.35;100.00;95357.16;5107511;28;20673;-74
2022/10/13 05:24:37;;;;;;;40.97;24.67;;;;;;;9.44;100.00;95368.94;5109148;28;20203;-75
2022/10/13 05:27:07;;;;;;;35.87;22.03;;;;;;;9.50;100.00;95366.38;5108759;28;20224;-75
2022/10/13 05:29:34;;;;;;;40.70;21.93;;;;;;;9.50;100.00;95368.97;5108111;28;20295;-75
2022/10/13 05:32:00;;;;;;;40.90;24.33;;;;;;;9.60;100.00;95368.63;5108522;28;20264;-76
2022/10/13 05:34:28;;;;;;;53.17;24.23;;;;;;;9.61;100.00;95368.41;5108550;28;20284;-75
2022/10/13 05:36:54;;;;;;;50.07;23.70;;;;;;;9.60;100.00;95374.63;5108883;28;20196;-77
2022/10/13 05:39:21;;;;;;;51.73;25.80;;;;;;;9.63;100.00;95382.00;5108237;28;21653;-76
2022/10/13 05:41:48;;;;;;;48.30;24.27;;;;;;;9.72;100.00;95385.25;5108201;28;20203;-76
2022/10/13 05:44:16;;;;;;;54.07;26.43;;;;;;;9.79;100.00;95391.22;5107386;28;20207;-76
2022/10/13 05:46:43;;;;;;;52.50;25.53;;;;;;;9.78;100.00;95389.66;5108136;28;20562;-75
2022/10/13 05:49:10;;;;;;;49.33;24.93;;;;;;;9.85;100.00;95392.25;5107191;28;21076;-75
2022/10/13 05:51:41;;;;;;;49.43;25.43;;;;;;;9.90;100.00;95395.88;5108040;28;20215;-75
2022/10/13 05:54:12;;;;;;;44.60;24.87;;;;;;;9.95;100.00;95392.69;5107972;28;20555;-75
2022/10/13 05:56:43;;;;;;;52.93;27.20;;;;;;;9.98;100.00;95402.69;5108044;28;20686;-76
2022/10/13 05:59:13;;;;;;;55.00;28.43;;;;;;;9.95;100.00;95411.69;5107745;28;20661;-75
2022/10/13 06:01:42;;;;;;;60.20;29.00;;;;;;;9.87;100.00;95417.03;5108362;28;20224;-75
2022/10/13 06:04:13;;;;;;;61.27;30.40;;;;;;;9.82;100.00;95409.03;5107345;28;20208;-75
2022/10/13 06:06:40;;;;;;;56.57;29.20;;;;;;;9.82;100.00;95403.84;5108309;28;20257;-74
2022/10/13 06:09:07;;;;;;;55.07;28.27;;;;;;;9.79;100.00;95399.03;5107483;28;20200;-75
2022/10/13 06:11:34;;;;;;;64.03;29.40;;;;;;;9.64;100.00;95400.94;5107581;28;20222;-75
2022/10/13 06:14:01;;;;;;;56.80;30.53;;;;;;;9.62;100.00;95403.75;5108123;28;20650;-75
2022/10/13 06:16:28;;;;;;;62.80;30.97;;;;;;;9.66;100.00;95399.00;5105034;28;20207;-75
2022/10/13 06:18:56;;;;;;;61.00;30.87;;;;;;;9.69;100.00;95401.19;5107804;28;20203;-75
2022/10/13 06:21:23;;;;;;;62.37;30.73;;;;;;;9.77;100.00;95402.81;5107348;28;20204;-75
2022/10/13 06:23:49;;;;;;;61.07;31.07;;;;;;;9.87;100.00;95398.06;5107536;28;20204;-75
2022/10/13 06:26:16;;;;;;;61.63;30.87;;;;;;;9.92;100.00;95395.69;5106687;28;20199;-75
2022/10/13 06:28:43;;;;;;;64.13;31.43;;;;;;;10.08;100.00;95403.09;5106792;28;20673;-75
2022/10/13 06:31:10;;;;;;;58.30;30.43;;;;;;;10.10;100.00;95401.91;5110271;28;20223;-75
2022/10/13 06:33:37;;;;;;;64.43;31.27;;;;;;;10.19;100.00;95403.38;5111014;28;20203;-75
2022/10/13 06:36:07;;;;;;;60.03;31.03;;;;;;;10.16;100.00;95401.16;5111544;28;20223;-75
2022/10/13 06:38:34;;;;;;;61.57;31.80;;;;;;;10.08;100.00;95396.13;5111694;28;20206;-75
2022/10/13 06:41:01;;;;;;;63.70;32.10;;;;;;;9.95;100.00;95397.88;5111426;28;20702;-74
2022/10/13 06:43:28;;;;;;;59.07;31.70;;;;;;;9.97;100.00;95394.09;5108685;28;20208;-74
2022/10/13 06:45:58;;;;;;;60.47;31.23;;;;;;;10.10;100.00;95393.34;5110284;28;20215;-74
2022/10/13 06:48:25;;;;;;;64.07;31.90;;;;;;;10.16;100.00;95385.56;5106281;28;20196;-75
2022/10/13 06:50:52;;;;;;;63.73;32.27;;;;;;;10.31;100.00;95390.59;5106988;28;20223;-75
2022/10/13 06:53:20;;;;;;;54.40;31.07;;;;;;;10.36;100.00;95390.81;5110716;28;20204;-81
2022/10/13 06:55:47;;;;;;;60.73;31.83;;;;;;;10.36;100.00;95388.19;5110454;28;20219;-80
2022/10/13 06:58:14;;;;;;;53.50;29.80;;;;;;;10.34;100.00;95390.19;5108987;28;20247;-78
2022/10/13 07:00:41;;;;;;;54.03;30.50;;;;;;;10.23;100.00;95386.41;5110718;28;20516;-78
2022/10/13 07:03:08;;;;;;;53.03;30.60;;;;;;;10.19;100.00;95385.19;5107459;28;20653;-81
2022/10/13 07:05:35;;;;;;;60.57;30.30;;;;;;;10.19;100.00;95379.19;5111945;28;20200;-79
2022/10/13 07:08:02;;;;;;;52.03;29.73;;;;;;;10.17;100.00;95386.38;5105219;28;20200;-80
2022/10/13 07:10:30;;;;;;;62.47;28.67;;;;;;;10.21;100.00;95385.00;5110370;28;20207;-86
2022/10/13 07:12:57;;;;;;;54.27;29.30;;;;;;;10.31;100.00;95376.81;5109111;28;20557;-85
2022/10/13 07:15:24;;;;;;;60.23;29.83;;;;;;;10.36;100.00;95383.00;5110958;28;20241;-80
2022/10/13 07:17:52;;;;;;;47.70;29.33;;;;;;;10.29;100.00;95384.00;5111331;28;20200;-82
2022/10/13 07:20:20;;;;;;;52.17;27.67;;;;;;;10.20;100.00;95378.19;5110111;28;20270;-82
2022/10/13 07:22:47;;;;;;;48.53;27.73;;;;;;;10.02;100.00;95378.72;5110113;28;20380;-76
2022/10/13 07:25:13;;;;;;;52.53;27.93;;;;;;;10.10;100.00;95383.72;5112227;28;20208;-79
2022/10/13 07:27:43;;;;;;;54.90;27.67;;;;;;;10.36;100.00;95390.81;5103204;28;20197;-79
2022/10/13 07:30:10;;;;;;;51.43;27.30;;;;;;;10.49;100.00;95379.63;5109267;28;20249;-79
2022/10/13 07:32:40;;;;;;;49.13;28.13;;;;;;;10.64;100.00;95394.03;5100052;28;20223;-79
2022/10/13 07:35:08;;;;;;;46.63;26.00;;;;;;;10.77;100.00;95388.03;5109097;28;20192;-78
2022/10/13 07:37:35;;;;;;;49.03;27.30;;;;;;;10.94;100.00;95384.00;5105163;28;20207;-79
2022/10/13 07:40:01;;;;;;;49.20;26.87;;;;;;;11.13;100.00;95388.41;5108220;28;20231;-79
2022/10/13 07:42:28;;;;;;;50.63;27.20;;;;;;;11.23;100.00;95374.97;5107031;28;20204;-78
2022/10/13 07:44:56;;;;;;;47.93;27.13;;;;;;;11.44;100.00;95387.72;5109768;28;20200;-77
2022/10/13 07:47:23;;;;;;;43.33;27.03;;;;;;;11.57;100.00;95387.66;5109626;28;20249;-79
2022/10/13 07:49:50;;;;;;;43.73;26.20;;;;;;;11.75;100.00;95381.84;5104632;28;20200;-80
2022/10/13 07:52:17;;;;;;;45.70;26.13;;;;;;;11.77;100.00;95393.66;5100827;28;20916;-79
2022/10/13 07:54:44;;;;;;;48.03;25.53;;;;;;;11.88;100.00;95393.00;5104154;28;20630;-79
2022/10/13 07:57:10;;;;;;;43.37;24.33;;;;;;;12.06;100.00;95386.31;5107965;28;20197;-78
2022/10/13 07:59:37;;;;;;;40.33;25.33;;;;;;;11.60;100.00;95363.81;5103223;28;20196;-80
2022/10/13 08:02:06;;;;;;;43.63;27.03;;;;;;;11.30;100.00;95386.97;5105017;28;20189;-79
2022/10/13 08:04:34;;;;;;;44.23;26.23;;;;;;;11.08;100.00;95377.78;5108990;28;20658;-81
2022/10/13 08:07:03;;;;;;;50.63;28.20;;;;;;;11.28;100.00;95373.34;5106829;28;20211;-80
2022/10/13 08:09:29;;;;;;;47.10;27.57;;;;;;;11.56;100.00;95387.88;5098308;28;20188;-75
2022/10/13 08:11:56;;;;;;;47.13;28.43;;;;;;;11.85;100.00;95385.59;5107128;28;20220;-76
2022/10/13 08:14:23;;;;;;;46.93;27.23;;;;;;;12.08;100.00;95379.06;5105032;28;20196;-76
2022/10/13 08:16:50;;;;;;;43.10;27.03;;;;;;;12.35;100.00;95380.53;5108913;28;20744;-76
2022/10/13 08:19:20;;;;;;;44.73;25.73;;;;;;;12.58;100.00;95375.56;5109733;28;20208;-75
2022/10/13 08:21:48;;;;;;;41.53;26.60;;;;;;;12.87;100.00;95366.28;5091440;28;20208;-76
2022/10/13 08:24:17;;;;;;;46.60;27.37;;;;;;;13.11;100.00;95373.31;5109782;28;20223;-75
2022/10/13 08:26:46;;;;;;;44.47;26.87;;;;;;;13.40;100.00;95374.41;5110513;28;20223;-75
2022/10/13 08:29:13;;;;;;;40.83;26.13;;;;;;;13.68;100.00;95373.94;5110189;28;20219;-78
2022/10/13 08:31:40;;;;;;;45.10;26.43;;;;;;;13.83;100.00;95361.25;5109783;28;20247;-78
2022/10/13 08:34:07;;;;;;;42.43;26.67;;;;;;;13.99;100.00;95361.47;5109725;28;20584;-82
2022/10/13 08:36:35;;;;;;;45.43;27.67;;;;;;;14.18;100.00;95357.78;5110891;28;20207;-76
2022/10/13 08:39:02;;;;;;;43.40;27.10;;;;;;;14.13;100.00;95362.09;5109776;28;20207;-77
2022/10/13 08:41:32;;;;;;;42.40;26.47;;;;;;;13.83;100.00;95361.25;5109252;28;20304;-76
2022/10/13 08:44:04;;;;;;;46.77;27.93;;;;;;;13.44;99.48;95357.31;5108842;28;20658;-76
2022/10/13 08:46:38;;;;;;;46.97;29.23;;;;;;;13.22;100.00;95349.09;5104033;28;20641;-77
2022/10/13 08:49:06;;;;;;;53.17;30.17;;;;;;;13.43;100.00;95353.91;5108955;28;20670;-77
2022/10/13 08:51:33;;;;;;;49.23;29.53;;;;;;;13.72;100.00;95351.56;5109611;28;20278;-76
2022/10/13 08:54:02;;;;;;;52.97;29.73;;;;;;;14.12;100.00;95345.59;5108642;28;20227;-75
2022/10/13 08:56:32;;;;;;;54.77;31.47;;;;;;;14.56;100.00;95339.16;5109034;28;20208;-75
2022/10/13 08:59:00;;;;;;;55.40;33.53;;;;;;;14.91;98.37;95344.41;5109004;28;20595;-76
2022/10/13 09:01:30;;;;;;;54.63;32.27;;;;;;;15.00;95.92;95353.53;5108448;28;20748;-77
2022/10/13 09:04:00;;;;;;;45.03;26.70;;;;;;;14.59;95.59;95336.06;5105497;28;20204;-75
2022/10/13 09:06:30;;;;;;;45.77;27.77;;;;;;;13.78;100.00;95327.16;5108482;28;20204;-75
2022/10/13 09:08:59;;;;;;;50.80;28.30;;;;;;;14.00;100.00;95333.50;5105052;28;20196;-75
2022/10/13 09:11:31;;;;;;;47.23;26.80;;;;;;;14.51;99.86;95335.63;5108675;28;20279;-77
2022/10/13 09:13:59;;;;;;;42.97;25.87;;;;;;;15.06;95.15;95341.34;5104777;28;20229;-77
2022/10/13 09:16:29;;;;;;;39.87;23.13;;;;;;;15.51;92.21;95336.28;5109066;28;20204;-77
2022/10/13 09:19:11;;;;;;;42.40;24.80;;;;;;;15.93;91.03;95336.88;5107937;28;20234;-81
2022/10/13 09:21:38;;;;;;;37.70;24.60;;;;;;;16.43;88.18;95322.81;5110597;28;20188;-78
2022/10/13 09:24:08;;;;;;;41.57;24.60;;;;;;;16.86;86.88;95324.84;5109358;28;20210;-76
2022/10/13 09:26:39;;;;;;;41.37;24.03;;;;;;;17.32;85.46;95318.38;5108627;28;20210;-76
2022/10/13 09:29:09;;;;;;;38.47;24.43;;;;;;;17.80;83.60;95309.00;5108919;28;20266;-77
2022/10/13 09:31:37;;;;;;;40.83;24.00;;;;;;;18.32;81.12;95315.34;5109037;28;20308;-77
2022/10/13 09:34:15;;;;;;;40.97;24.80;;;;;;;18.78;79.51;95319.19;5108312;28;20289;-76
2022/10/13 09:36:56;;;;;;;36.70;24.87;;;;;;;19.00;77.48;95314.56;5108956;28;20227;-76
2022/10/13 09:39:23;;;;;;;40.13;22.97;;;;;;;19.00;75.62;95316.41;5107795;28;20608;-76
2022/10/13 09:41:53;;;;;;;45.70;22.67;;;;;;;19.17;75.78;95319.69;5107462;28;20235;-76
2022/10/13 09:44:28;;;;;;;41.83;23.15;;;;;;;19.40;75.18;95307.97;5108558;28;20849;-77
2022/10/13 09:46:58;;;;;;;41.25;24.20;;;;;;;19.69;74.00;95323.16;5105468;28;20204;-76
2022/10/13 09:49:37;;;;;;;43.38;23.08;;;;;;;19.90;73.72;95310.81;5107910;28;20208;-75
2022/10/13 09:52:07;;;;;;;39.42;23.52;;;;;;;20.25;71.75;95310.94;5108018;28;20766;-76
2022/10/13 09:54:42;;;;;;;43.55;23.48;;;;;;;20.22;71.83;95321.19;5108480;28;20257;-76
2022/10/13 09:57:20;;;;;;;36.63;22.83;;;;;;;20.30;71.27;95308.31;5107885;28;20224;-76
2022/10/13 09:59:50;;;;;;;40.50;22.45;;;;;;;20.60;71.42;95304.09;5108441;28;20287;-76
2022/10/13 10:02:30;;;;;;;46.80;24.02;;;;;;;20.93;68.69;95308.84;5107518;28;20635;-76
2022/10/13 10:05:05;;;;;;;35.83;23.40;;;;;;;21.28;67.58;95308.00;5108429;28;20200;-76
2022/10/13 10:07:33;;;;;;;35.92;22.27;;;;;;;21.44;67.42;95304.28;5104901;28;20205;-76
2022/10/13 10:10:04;;;;;;;38.92;22.40;;;;;;;21.75;67.08;95300.47;5108047;28;20650;-76
2022/10/13 10:12:37;;;;;;;33.10;22.15;;;;;;;21.86;66.56;95280.81;5105331;28;20232;-76
2022/10/13 10:15:17;;;;;;;41.70;22.80;;;;;;;22.29;65.71;95292.50;5107984;28;20195;-76
2022/10/13 10:17:49;;;;;;;34.47;22.60;;;;;;;22.55;63.85;95285.16;5108455;28;20211;-76
2022/10/13 10:20:37;;;;;;;40.95;23.02;;;;;;;22.92;62.97;95290.72;5107677;28;20261;-76
2022/10/13 10:23:07;;;;;;;34.25;20.88;;;;;;;23.48;61.67;95288.31;5105590;28;20214;-76
2022/10/13 10:25:40;;;;;;;36.38;22.83;;;;;;;23.77;60.36;95285.59;5107839;28;20226;-75
2022/10/13 10:28:28;;;;;;;45.15;22.13;;;;;;;24.13;58.62;95291.22;5107286;28;20257;-76
2022/10/13 10:31:01;;;;;;;37.22;21.85;;;;;;;24.23;58.09;95299.06;5108218;28;20249;-76
2022/10/13 10:33:41;;;;;;;37.33;20.30;;;;;;;24.56;56.89;95289.31;5104495;28;20224;-76
2022/10/13 10:36:15;;;;;;;31.02;20.48;;;;;;;24.63;56.52;95281.72;5107183;28;20590;-76
2022/10/13 10:38:48;;;;;;;30.83;20.65;;;;;;;24.53;55.59;95281.91;5107102;28;20195;-76
2022/10/13 10:41:26;;;;;;;36.30;22.23;;;;;;;24.06;56.66;95280.16;5106443;28;20339;-76
2022/10/13 10:44:01;;;;;;;37.28;21.05;;;;;;;23.61;57.01;95277.00;5108081;28;20200;-76
2022/10/13 10:46:31;;;;;;;34.00;20.02;;;;;;;23.26;57.44;95264.09;5104775;28;20206;-76
2022/10/13 10:49:01;;;;;;;30.25;20.33;;;;;;;22.74;59.51;95254.28;5104509;28;20207;-76
2022/10/13 10:51:32;;;;;;;31.23;20.15;;;;;;;22.38;59.81;95245.03;5107684;28;20196;-76
2022/10/13 10:54:09;;;;;;;35.42;19.42;;;;;;;22.28;60.99;95239.81;5104172;28;20208;-76
2022/10/13 10:56:39;;;;;;;35.65;18.95;;;;;;;22.59;60.80;95236.66;5105469;28;20702;-75
2022/10/13 10:59:20;;;;;;;31.90;18.27;;;;;;;23.00;60.51;95234.41;5106903;28;20214;-76
2022/10/13 11:01:52;;;;;;;34.65;18.20;;;;;;;23.30;58.77;95235.94;5106143;28;20204;-75
2022/10/13 11:04:40;;;;;;;29.23;18.40;;;;;;;22.39;60.27;95234.16;5106905;28;20635;-75
2022/10/13 11:07:12;;;;;;;35.13;19.30;;;;;;;21.31;62.92;95220.22;5106682;28;20670;-76
2022/10/13 11:10:01;;;;;;;35.50;19.58;;;;;;;21.11;64.21;95215.78;5106580;28;20196;-76
2022/10/13 11:12:47;;;;;;;30.90;17.98;;;;;;;21.48;64.21;95216.16;5102631;28;20223;-76
2022/10/13 11:15:23;;;;;;;28.20;17.85;;;;;;;21.82;63.29;95216.25;5105668;28;20192;-77
2022/10/13 11:17:51;;;;;;;29.58;17.13;;;;;;;22.12;61.61;95207.34;5111065;28;20782;-76
2022/10/13 11:20:57;;;;;;;29.70;17.25;;;;;;;22.45;60.64;95211.84;5109981;28;20734;-76
2022/10/13 11:23:32;;;;;;;34.47;17.55;;;;;;;22.57;60.49;95206.16;5111051;28;20202;-75
2022/10/13 11:26:30;;;;;;;30.45;17.52;;;;;;;22.15;61.09;95201.50;5108546;28;20248;-75
2022/10/13 11:28:57;;;;;;;26.52;16.23;;;;;;;22.35;61.62;95195.25;5111994;28;20200;-76
2022/10/13 11:31:48;;;;;;;25.10;15.30;;;;;;;22.73;59.41;95193.59;5110896;28;20265;-76